LFBE/EGC METAR and TAF weather

Enter ICAO airport designator
Station Type Date Time Source
LFBE METAR 2020/01/29 12:30 UTC NOAA

LFBE 291230Z AUTO 26007KT 9999 FEW019 SCT030 OVC046 13/08 Q1021 NOSIG


Station Type Date Time Source
LFBE Decoded METAR 2020/01/29 12:30 UTC NOAA

Bergerac, France (LFBE) 44-49N 000-31E 52M
Jan 29, 2020 - 07:30 AM EST / 2020.01.29 1230 UTC
Wind: from the W (260 degrees) at 8 MPH (7 KT):0
Visibility: greater than 7 mile(s):0
Sky conditions: overcast
Temperature: 55 F (13 C)
Dew Point: 46 F (8 C)
Relative Humidity: 71%
Pressure (altimeter): 30.15 in. Hg (1021 hPa)
ob: LFBE 291230Z AUTO 26007KT 9999 FEW019 SCT030 OVC046 13/08 Q1021 NOSIG
cycle: 12

Station Type Date Time Source
LFBE TAF 2020/01/29 12:55 UTC NOAA

TAF LFBE 291100Z 2912/3012 25010KT 9999 BKN030
BECMG 2917/2919 13005KT
BECMG 3001/3003 4000 -RA
TEMPO 3003/3009 2000 RADZ OVC008

Example: see airport list